sensor_id;sensor_type;location;lat;lon;timestamp;P1;durP1;ratioP1;P2;durP2;ratioP2
19179;SDS011;9722;48.754;8.868;2023-04-06T00:00:58;8.43;;;5.93;;
19179;SDS011;9722;48.754;8.868;2023-04-06T00:04:19;6.27;;;5.63;;
19179;SDS011;9722;48.754;8.868;2023-04-06T00:07:40;6.60;;;6.00;;
19179;SDS011;9722;48.754;8.868;2023-04-06T00:11:00;6.93;;;6.20;;
19179;SDS011;9722;48.754;8.868;2023-04-06T00:14:21;6.13;;;5.53;;
19179;SDS011;9722;48.754;8.868;2023-04-06T00:17:41;6.10;;;5.53;;
19179;SDS011;9722;48.754;8.868;2023-04-06T00:21:02;6.77;;;6.17;;
19179;SDS011;9722;48.754;8.868;2023-04-06T00:24:23;6.83;;;5.63;;
19179;SDS011;9722;48.754;8.868;2023-04-06T00:27:43;8.00;;;6.53;;
19179;SDS011;9722;48.754;8.868;2023-04-06T00:31:04;6.70;;;5.67;;
19179;SDS011;9722;48.754;8.868;2023-04-06T00:34:24;6.40;;;5.80;;
19179;SDS011;9722;48.754;8.868;2023-04-06T00:37:46;6.33;;;5.60;;
19179;SDS011;9722;48.754;8.868;2023-04-06T00:41:07;6.97;;;6.27;;
19179;SDS011;9722;48.754;8.868;2023-04-06T00:44:28;6.03;;;5.43;;
19179;SDS011;9722;48.754;8.868;2023-04-06T00:47:48;6.60;;;5.87;;
19179;SDS011;9722;48.754;8.868;2023-04-06T00:51:09;5.77;;;5.17;;
19179;SDS011;9722;48.754;8.868;2023-04-06T00:54:29;5.93;;;5.30;;
19179;SDS011;9722;48.754;8.868;2023-04-06T00:57:50;7.83;;;5.23;;
19179;SDS011;9722;48.754;8.868;2023-04-06T01:01:11;5.93;;;5.27;;
19179;SDS011;9722;48.754;8.868;2023-04-06T01:04:31;6.03;;;5.53;;
19179;SDS011;9722;48.754;8.868;2023-04-06T01:07:52;6.43;;;5.83;;
19179;SDS011;9722;48.754;8.868;2023-04-06T01:11:13;5.13;;;4.70;;
19179;SDS011;9722;48.754;8.868;2023-04-06T01:14:33;6.13;;;5.57;;
19179;SDS011;9722;48.754;8.868;2023-04-06T01:17:54;6.40;;;5.33;;
19179;SDS011;9722;48.754;8.868;2023-04-06T01:21:15;8.43;;;6.27;;
19179;SDS011;9722;48.754;8.868;2023-04-06T01:24:36;6.33;;;5.73;;
19179;SDS011;9722;48.754;8.868;2023-04-06T01:27:56;7.00;;;5.50;;
19179;SDS011;9722;48.754;8.868;2023-04-06T01:31:17;6.77;;;5.57;;
19179;SDS011;9722;48.754;8.868;2023-04-06T01:34:37;9.70;;;6.07;;
19179;SDS011;9722;48.754;8.868;2023-04-06T01:37:58;6.53;;;5.93;;
19179;SDS011;9722;48.754;8.868;2023-04-06T01:41:18;5.87;;;5.37;;
19179;SDS011;9722;48.754;8.868;2023-04-06T01:44:39;7.17;;;6.03;;
19179;SDS011;9722;48.754;8.868;2023-04-06T01:48:00;8.03;;;5.93;;
19179;SDS011;9722;48.754;8.868;2023-04-06T01:51:21;5.67;;;5.17;;
19179;SDS011;9722;48.754;8.868;2023-04-06T01:54:41;6.50;;;5.70;;
19179;SDS011;9722;48.754;8.868;2023-04-06T01:58:02;5.67;;;5.17;;
19179;SDS011;9722;48.754;8.868;2023-04-06T02:01:22;9.57;;;5.53;;
19179;SDS011;9722;48.754;8.868;2023-04-06T02:04:43;6.63;;;5.80;;
19179;SDS011;9722;48.754;8.868;2023-04-06T02:08:07;6.40;;;5.70;;
19179;SDS011;9722;48.754;8.868;2023-04-06T02:11:27;6.13;;;5.53;;
19179;SDS011;9722;48.754;8.868;2023-04-06T02:14:48;6.27;;;5.70;;
19179;SDS011;9722;48.754;8.868;2023-04-06T02:18:08;6.10;;;5.50;;
19179;SDS011;9722;48.754;8.868;2023-04-06T02:21:29;6.50;;;5.87;;
19179;SDS011;9722;48.754;8.868;2023-04-06T02:24:50;7.97;;;5.77;;
19179;SDS011;9722;48.754;8.868;2023-04-06T02:28:11;6.07;;;5.43;;
19179;SDS011;9722;48.754;8.868;2023-04-06T02:31:31;5.47;;;4.97;;
19179;SDS011;9722;48.754;8.868;2023-04-06T02:34:52;6.00;;;5.33;;
19179;SDS011;9722;48.754;8.868;2023-04-06T02:38:12;7.40;;;5.20;;
19179;SDS011;9722;48.754;8.868;2023-04-06T02:41:33;6.40;;;5.80;;
19179;SDS011;9722;48.754;8.868;2023-04-06T02:44:53;6.13;;;5.53;;
19179;SDS011;9722;48.754;8.868;2023-04-06T02:48:14;6.60;;;5.67;;
19179;SDS011;9722;48.754;8.868;2023-04-06T02:51:34;5.57;;;5.07;;
19179;SDS011;9722;48.754;8.868;2023-04-06T02:54:55;6.20;;;5.60;;
19179;SDS011;9722;48.754;8.868;2023-04-06T02:58:15;6.67;;;5.27;;
19179;SDS011;9722;48.754;8.868;2023-04-06T03:01:36;5.20;;;4.73;;
19179;SDS011;9722;48.754;8.868;2023-04-06T03:04:56;6.63;;;5.93;;
19179;SDS011;9722;48.754;8.868;2023-04-06T03:08:17;6.30;;;5.67;;
19179;SDS011;9722;48.754;8.868;2023-04-06T03:11:37;6.27;;;5.20;;
19179;SDS011;9722;48.754;8.868;2023-04-06T03:14:58;6.37;;;5.80;;
19179;SDS011;9722;48.754;8.868;2023-04-06T03:18:21;5.53;;;5.10;;
19179;SDS011;9722;48.754;8.868;2023-04-06T03:21:43;6.67;;;5.30;;
19179;SDS011;9722;48.754;8.868;2023-04-06T03:25:03;6.27;;;5.30;;
19179;SDS011;9722;48.754;8.868;2023-04-06T03:28:24;6.40;;;5.80;;
19179;SDS011;9722;48.754;8.868;2023-04-06T03:31:45;7.07;;;5.80;;
19179;SDS011;9722;48.754;8.868;2023-04-06T03:35:05;6.83;;;4.97;;
19179;SDS011;9722;48.754;8.868;2023-04-06T03:38:26;5.30;;;4.67;;
19179;SDS011;9722;48.754;8.868;2023-04-06T03:41:47;5.57;;;5.00;;
19179;SDS011;9722;48.754;8.868;2023-04-06T03:45:07;7.43;;;5.33;;
19179;SDS011;9722;48.754;8.868;2023-04-06T03:48:28;5.13;;;4.60;;
19179;SDS011;9722;48.754;8.868;2023-04-06T03:51:49;6.10;;;5.37;;
19179;SDS011;9722;48.754;8.868;2023-04-06T03:55:10;6.43;;;5.50;;
19179;SDS011;9722;48.754;8.868;2023-04-06T03:58:31;6.67;;;5.47;;
19179;SDS011;9722;48.754;8.868;2023-04-06T04:01:51;6.37;;;5.77;;
19179;SDS011;9722;48.754;8.868;2023-04-06T04:05:12;5.83;;;5.10;;
19179;SDS011;9722;48.754;8.868;2023-04-06T04:08:32;5.43;;;4.63;;
19179;SDS011;9722;48.754;8.868;2023-04-06T04:11:53;10.60;;;7.57;;
19179;SDS011;9722;48.754;8.868;2023-04-06T04:15:13;15.07;;;13.77;;
19179;SDS011;9722;48.754;8.868;2023-04-06T04:18:34;8.93;;;8.13;;
19179;SDS011;9722;48.754;8.868;2023-04-06T04:21:55;7.20;;;6.50;;
19179;SDS011;9722;48.754;8.868;2023-04-06T04:25:15;5.80;;;5.30;;
19179;SDS011;9722;48.754;8.868;2023-04-06T04:28:35;6.47;;;5.80;;
19179;SDS011;9722;48.754;8.868;2023-04-06T04:31:56;6.37;;;5.50;;
19179;SDS011;9722;48.754;8.868;2023-04-06T04:35:17;6.37;;;5.70;;
19179;SDS011;9722;48.754;8.868;2023-04-06T04:38:37;6.17;;;5.67;;
19179;SDS011;9722;48.754;8.868;2023-04-06T04:41:58;7.37;;;6.37;;
19179;SDS011;9722;48.754;8.868;2023-04-06T04:45:18;7.97;;;6.10;;
19179;SDS011;9722;48.754;8.868;2023-04-06T04:48:39;8.53;;;5.80;;
19179;SDS011;9722;48.754;8.868;2023-04-06T04:51:59;7.23;;;5.63;;
19179;SDS011;9722;48.754;8.868;2023-04-06T04:55:20;7.17;;;5.90;;
19179;SDS011;9722;48.754;8.868;2023-04-06T04:58:40;6.63;;;6.03;;
19179;SDS011;9722;48.754;8.868;2023-04-06T05:02:01;6.83;;;6.23;;
19179;SDS011;9722;48.754;8.868;2023-04-06T05:05:21;6.13;;;5.53;;
19179;SDS011;9722;48.754;8.868;2023-04-06T05:08:42;5.13;;;4.73;;
19179;SDS011;9722;48.754;8.868;2023-04-06T05:12:02;5.47;;;5.00;;
19179;SDS011;9722;48.754;8.868;2023-04-06T05:15:23;5.80;;;5.30;;
19179;SDS011;9722;48.754;8.868;2023-04-06T05:18:43;6.57;;;5.97;;
19179;SDS011;9722;48.754;8.868;2023-04-06T05:22:04;6.83;;;6.23;;
19179;SDS011;9722;48.754;8.868;2023-04-06T05:25:25;8.00;;;6.87;;
19179;SDS011;9722;48.754;8.868;2023-04-06T05:28:45;8.70;;;7.90;;
19179;SDS011;9722;48.754;8.868;2023-04-06T05:32:06;9.87;;;8.77;;
19179;SDS011;9722;48.754;8.868;2023-04-06T05:35:27;8.37;;;7.53;;
19179;SDS011;9722;48.754;8.868;2023-04-06T05:38:47;8.37;;;7.00;;
19179;SDS011;9722;48.754;8.868;2023-04-06T05:42:08;6.47;;;5.87;;
19179;SDS011;9722;48.754;8.868;2023-04-06T05:45:28;8.03;;;6.17;;
19179;SDS011;9722;48.754;8.868;2023-04-06T05:48:50;6.30;;;5.70;;
19179;SDS011;9722;48.754;8.868;2023-04-06T05:52:10;5.73;;;5.20;;
19179;SDS011;9722;48.754;8.868;2023-04-06T05:55:31;7.17;;;5.37;;
19179;SDS011;9722;48.754;8.868;2023-04-06T05:58:51;6.40;;;5.80;;
19179;SDS011;9722;48.754;8.868;2023-04-06T06:02:12;6.23;;;5.63;;
19179;SDS011;9722;48.754;8.868;2023-04-06T06:05:32;6.83;;;6.07;;
19179;SDS011;9722;48.754;8.868;2023-04-06T06:08:53;8.37;;;5.87;;
19179;SDS011;9722;48.754;8.868;2023-04-06T06:12:13;7.47;;;5.23;;
19179;SDS011;9722;48.754;8.868;2023-04-06T06:15:34;7.27;;;5.53;;
19179;SDS011;9722;48.754;8.868;2023-04-06T06:18:54;10.40;;;5.87;;
19179;SDS011;9722;48.754;8.868;2023-04-06T06:22:15;6.63;;;5.00;;
19179;SDS011;9722;48.754;8.868;2023-04-06T06:25:35;5.97;;;5.37;;
19179;SDS011;9722;48.754;8.868;2023-04-06T06:28:56;5.07;;;4.67;;
19179;SDS011;9722;48.754;8.868;2023-04-06T06:32:17;6.13;;;5.63;;
19179;SDS011;9722;48.754;8.868;2023-04-06T06:35:38;5.97;;;5.50;;
19179;SDS011;9722;48.754;8.868;2023-04-06T06:38:58;6.77;;;5.27;;
19179;SDS011;9722;48.754;8.868;2023-04-06T06:42:20;6.00;;;5.40;;
19179;SDS011;9722;48.754;8.868;2023-04-06T06:45:41;6.30;;;5.73;;
19179;SDS011;9722;48.754;8.868;2023-04-06T06:49:02;7.13;;;5.77;;
19179;SDS011;9722;48.754;8.868;2023-04-06T06:52:23;5.90;;;5.40;;
19179;SDS011;9722;48.754;8.868;2023-04-06T06:55:44;5.97;;;5.47;;
19179;SDS011;9722;48.754;8.868;2023-04-06T06:59:04;7.17;;;5.20;;
19179;SDS011;9722;48.754;8.868;2023-04-06T07:02:25;6.50;;;5.27;;
19179;SDS011;9722;48.754;8.868;2023-04-06T07:05:46;5.60;;;5.00;;
19179;SDS011;9722;48.754;8.868;2023-04-06T07:09:12;7.87;;;5.40;;
19179;SDS011;9722;48.754;8.868;2023-04-06T07:12:33;5.77;;;5.20;;
19179;SDS011;9722;48.754;8.868;2023-04-06T07:15:53;6.20;;;5.60;;
19179;SDS011;9722;48.754;8.868;2023-04-06T07:19:14;6.13;;;5.53;;
19179;SDS011;9722;48.754;8.868;2023-04-06T07:22:34;5.77;;;5.27;;
19179;SDS011;9722;48.754;8.868;2023-04-06T07:25:55;5.70;;;5.20;;
19179;SDS011;9722;48.754;8.868;2023-04-06T07:29:15;5.50;;;4.93;;
19179;SDS011;9722;48.754;8.868;2023-04-06T07:32:37;5.47;;;5.07;;
19179;SDS011;9722;48.754;8.868;2023-04-06T07:35:58;6.17;;;5.67;;
19179;SDS011;9722;48.754;8.868;2023-04-06T07:39:19;5.87;;;5.47;;
19179;SDS011;9722;48.754;8.868;2023-04-06T07:42:40;8.50;;;5.03;;
19179;SDS011;9722;48.754;8.868;2023-04-06T07:46:00;6.10;;;5.50;;
19179;SDS011;9722;48.754;8.868;2023-04-06T07:49:21;5.60;;;5.13;;
19179;SDS011;9722;48.754;8.868;2023-04-06T07:52:42;5.77;;;5.37;;
19179;SDS011;9722;48.754;8.868;2023-04-06T07:56:03;5.10;;;4.70;;
19179;SDS011;9722;48.754;8.868;2023-04-06T07:59:24;5.77;;;5.27;;
19179;SDS011;9722;48.754;8.868;2023-04-06T08:02:44;5.70;;;5.20;;
19179;SDS011;9722;48.754;8.868;2023-04-06T08:06:05;5.90;;;5.30;;
19179;SDS011;9722;48.754;8.868;2023-04-06T08:09:25;5.83;;;5.23;;
19179;SDS011;9722;48.754;8.868;2023-04-06T08:12:46;6.10;;;5.60;;
19179;SDS011;9722;48.754;8.868;2023-04-06T08:16:07;5.83;;;5.43;;
19179;SDS011;9722;48.754;8.868;2023-04-06T08:19:27;6.70;;;4.50;;
19179;SDS011;9722;48.754;8.868;2023-04-06T08:22:48;5.37;;;4.97;;
19179;SDS011;9722;48.754;8.868;2023-04-06T08:26:08;5.83;;;5.40;;
19179;SDS011;9722;48.754;8.868;2023-04-06T08:29:29;5.03;;;4.63;;
19179;SDS011;9722;48.754;8.868;2023-04-06T08:32:50;5.33;;;4.93;;
19179;SDS011;9722;48.754;8.868;2023-04-06T08:36:11;5.73;;;5.10;;
19179;SDS011;9722;48.754;8.868;2023-04-06T08:39:33;5.30;;;4.90;;
19179;SDS011;9722;48.754;8.868;2023-04-06T08:42:54;5.43;;;5.03;;
19179;SDS011;9722;48.754;8.868;2023-04-06T08:46:17;5.03;;;4.67;;
19179;SDS011;9722;48.754;8.868;2023-04-06T08:49:38;5.90;;;4.87;;
19179;SDS011;9722;48.754;8.868;2023-04-06T08:52:59;5.83;;;5.33;;
19179;SDS011;9722;48.754;8.868;2023-04-06T08:56:21;6.67;;;6.17;;
19179;SDS011;9722;48.754;8.868;2023-04-06T08:59:42;6.23;;;5.73;;
19179;SDS011;9722;48.754;8.868;2023-04-06T09:03:03;8.87;;;6.27;;
19179;SDS011;9722;48.754;8.868;2023-04-06T09:06:26;7.53;;;6.43;;
19179;SDS011;9722;48.754;8.868;2023-04-06T09:09:47;6.87;;;6.27;;
19179;SDS011;9722;48.754;8.868;2023-04-06T09:13:11;6.30;;;5.70;;
19179;SDS011;9722;48.754;8.868;2023-04-06T09:16:38;5.50;;;5.10;;
19179;SDS011;9722;48.754;8.868;2023-04-06T09:20:01;5.87;;;5.27;;
19179;SDS011;9722;48.754;8.868;2023-04-06T09:23:23;5.37;;;4.97;;
19179;SDS011;9722;48.754;8.868;2023-04-06T09:26:44;6.03;;;5.60;;
19179;SDS011;9722;48.754;8.868;2023-04-06T09:30:07;6.20;;;5.70;;
19179;SDS011;9722;48.754;8.868;2023-04-06T09:33:33;7.07;;;6.50;;
19179;SDS011;9722;48.754;8.868;2023-04-06T09:36:57;6.43;;;5.80;;
19179;SDS011;9722;48.754;8.868;2023-04-06T09:40:18;5.70;;;5.30;;
19179;SDS011;9722;48.754;8.868;2023-04-06T09:43:41;5.60;;;5.20;;
19179;SDS011;9722;48.754;8.868;2023-04-06T09:47:01;5.70;;;5.30;;
19179;SDS011;9722;48.754;8.868;2023-04-06T09:50:26;5.73;;;5.33;;
19179;SDS011;9722;48.754;8.868;2023-04-06T09:53:48;5.97;;;5.57;;
19179;SDS011;9722;48.754;8.868;2023-04-06T10:00:50;6.47;;;5.97;;
19179;SDS011;9722;48.754;8.868;2023-04-06T10:04:32;5.73;;;5.33;;
19179;SDS011;9722;48.754;8.868;2023-04-06T10:08:02;6.43;;;5.93;;
19179;SDS011;9722;48.754;8.868;2023-04-06T10:11:31;6.30;;;5.90;;
19179;SDS011;9722;48.754;8.868;2023-04-06T10:14:52;5.67;;;5.27;;
19179;SDS011;9722;48.754;8.868;2023-04-06T10:18:13;5.77;;;5.37;;
19179;SDS011;9722;48.754;8.868;2023-04-06T10:21:35;5.80;;;5.40;;
19179;SDS011;9722;48.754;8.868;2023-04-06T10:24:57;6.27;;;5.87;;
19179;SDS011;9722;48.754;8.868;2023-04-06T10:28:19;5.90;;;5.50;;
19179;SDS011;9722;48.754;8.868;2023-04-06T10:31:40;5.77;;;5.33;;
19179;SDS011;9722;48.754;8.868;2023-04-06T10:35:07;5.43;;;5.13;;
19179;SDS011;9722;48.754;8.868;2023-04-06T10:38:34;6.20;;;5.80;;
19179;SDS011;9722;48.754;8.868;2023-04-06T10:41:55;5.87;;;5.47;;
19179;SDS011;9722;48.754;8.868;2023-04-06T10:45:26;5.37;;;4.97;;
19179;SDS011;9722;48.754;8.868;2023-04-06T10:48:51;4.83;;;4.53;;
19179;SDS011;9722;48.754;8.868;2023-04-06T10:52:11;4.93;;;4.53;;
19179;SDS011;9722;48.754;8.868;2023-04-06T10:55:33;5.37;;;4.97;;
19179;SDS011;9722;48.754;8.868;2023-04-06T10:58:54;5.50;;;5.00;;
19179;SDS011;9722;48.754;8.868;2023-04-06T11:02:19;5.57;;;5.17;;
19179;SDS011;9722;48.754;8.868;2023-04-06T11:05:44;5.87;;;5.40;;
19179;SDS011;9722;48.754;8.868;2023-04-06T11:09:05;5.57;;;5.20;;
19179;SDS011;9722;48.754;8.868;2023-04-06T11:12:27;6.57;;;6.07;;
19179;SDS011;9722;48.754;8.868;2023-04-06T11:15:48;6.00;;;5.50;;
19179;SDS011;9722;48.754;8.868;2023-04-06T11:19:09;6.10;;;5.77;;
19179;SDS011;9722;48.754;8.868;2023-04-06T11:22:30;5.83;;;5.53;;
19179;SDS011;9722;48.754;8.868;2023-04-06T11:25:52;5.73;;;5.33;;
19179;SDS011;9722;48.754;8.868;2023-04-06T11:29:12;5.70;;;5.37;;
19179;SDS011;9722;48.754;8.868;2023-04-06T11:32:40;6.03;;;5.67;;
19179;SDS011;9722;48.754;8.868;2023-04-06T11:36:02;6.90;;;6.40;;
19179;SDS011;9722;48.754;8.868;2023-04-06T11:39:23;6.37;;;5.97;;
19179;SDS011;9722;48.754;8.868;2023-04-06T11:42:45;5.23;;;4.93;;
19179;SDS011;9722;48.754;8.868;2023-04-06T11:46:16;6.10;;;5.70;;
19179;SDS011;9722;48.754;8.868;2023-04-06T11:49:40;5.20;;;4.90;;
19179;SDS011;9722;48.754;8.868;2023-04-06T11:53:02;5.43;;;5.13;;
19179;SDS011;9722;48.754;8.868;2023-04-06T11:56:29;5.10;;;4.80;;
19179;SDS011;9722;48.754;8.868;2023-04-06T11:59:50;5.30;;;5.00;;
19179;SDS011;9722;48.754;8.868;2023-04-06T12:03:11;4.97;;;4.67;;
19179;SDS011;9722;48.754;8.868;2023-04-06T12:06:32;5.10;;;4.73;;
19179;SDS011;9722;48.754;8.868;2023-04-06T12:09:52;5.20;;;4.90;;
19179;SDS011;9722;48.754;8.868;2023-04-06T12:13:13;5.30;;;4.90;;
19179;SDS011;9722;48.754;8.868;2023-04-06T12:16:34;4.63;;;4.20;;
19179;SDS011;9722;48.754;8.868;2023-04-06T12:19:54;4.97;;;4.67;;
19179;SDS011;9722;48.754;8.868;2023-04-06T12:23:15;4.73;;;4.33;;
19179;SDS011;9722;48.754;8.868;2023-04-06T12:26:35;4.97;;;4.67;;
19179;SDS011;9722;48.754;8.868;2023-04-06T12:29:57;4.73;;;4.43;;
19179;SDS011;9722;48.754;8.868;2023-04-06T12:33:17;4.37;;;4.07;;
19179;SDS011;9722;48.754;8.868;2023-04-06T12:36:38;5.03;;;4.73;;
19179;SDS011;9722;48.754;8.868;2023-04-06T12:39:58;5.20;;;4.80;;
19179;SDS011;9722;48.754;8.868;2023-04-06T12:43:20;5.53;;;5.03;;
19179;SDS011;9722;48.754;8.868;2023-04-06T12:46:40;5.00;;;4.70;;
19179;SDS011;9722;48.754;8.868;2023-04-06T12:50:03;5.10;;;4.60;;
19179;SDS011;9722;48.754;8.868;2023-04-06T12:53:25;5.00;;;4.63;;
19179;SDS011;9722;48.754;8.868;2023-04-06T12:56:46;4.57;;;4.23;;
19179;SDS011;9722;48.754;8.868;2023-04-06T13:00:07;4.93;;;4.50;;
19179;SDS011;9722;48.754;8.868;2023-04-06T13:03:28;5.27;;;4.83;;
19179;SDS011;9722;48.754;8.868;2023-04-06T13:06:49;5.07;;;4.57;;
19179;SDS011;9722;48.754;8.868;2023-04-06T13:10:10;4.60;;;4.20;;
19179;SDS011;9722;48.754;8.868;2023-04-06T13:13:30;4.83;;;4.53;;
19179;SDS011;9722;48.754;8.868;2023-04-06T13:16:51;4.53;;;4.23;;
19179;SDS011;9722;48.754;8.868;2023-04-06T13:20:11;4.40;;;4.00;;
19179;SDS011;9722;48.754;8.868;2023-04-06T13:23:32;4.97;;;4.57;;
19179;SDS011;9722;48.754;8.868;2023-04-06T13:26:53;4.60;;;4.30;;
19179;SDS011;9722;48.754;8.868;2023-04-06T13:30:14;4.73;;;4.43;;
19179;SDS011;9722;48.754;8.868;2023-04-06T13:33:35;4.70;;;4.30;;
19179;SDS011;9722;48.754;8.868;2023-04-06T13:36:56;4.50;;;4.20;;
19179;SDS011;9722;48.754;8.868;2023-04-06T13:40:16;5.83;;;4.17;;
19179;SDS011;9722;48.754;8.868;2023-04-06T13:43:37;4.43;;;4.13;;
19179;SDS011;9722;48.754;8.868;2023-04-06T13:46:57;4.80;;;4.30;;
19179;SDS011;9722;48.754;8.868;2023-04-06T13:50:18;4.50;;;4.13;;
19179;SDS011;9722;48.754;8.868;2023-04-06T13:53:38;4.50;;;4.10;;
19179;SDS011;9722;48.754;8.868;2023-04-06T13:56:59;4.47;;;4.17;;
19179;SDS011;9722;48.754;8.868;2023-04-06T14:00:20;4.97;;;4.50;;
19179;SDS011;9722;48.754;8.868;2023-04-06T14:03:41;4.83;;;4.43;;
19179;SDS011;9722;48.754;8.868;2023-04-06T14:07:03;4.53;;;4.20;;
19179;SDS011;9722;48.754;8.868;2023-04-06T14:10:27;4.03;;;3.83;;
19179;SDS011;9722;48.754;8.868;2023-04-06T14:13:47;4.33;;;4.00;;
19179;SDS011;9722;48.754;8.868;2023-04-06T14:17:08;4.43;;;4.03;;
19179;SDS011;9722;48.754;8.868;2023-04-06T14:20:30;4.07;;;3.77;;
19179;SDS011;9722;48.754;8.868;2023-04-06T14:23:51;3.90;;;3.70;;
19179;SDS011;9722;48.754;8.868;2023-04-06T14:27:12;4.40;;;4.10;;
19179;SDS011;9722;48.754;8.868;2023-04-06T14:30:33;4.70;;;4.30;;
19179;SDS011;9722;48.754;8.868;2023-04-06T14:33:54;5.70;;;5.20;;
19179;SDS011;9722;48.754;8.868;2023-04-06T14:37:15;5.00;;;4.60;;
19179;SDS011;9722;48.754;8.868;2023-04-06T14:40:37;5.03;;;4.60;;
19179;SDS011;9722;48.754;8.868;2023-04-06T14:43:57;4.73;;;4.33;;
19179;SDS011;9722;48.754;8.868;2023-04-06T14:47:18;4.17;;;3.87;;
19179;SDS011;9722;48.754;8.868;2023-04-06T14:50:41;4.60;;;4.27;;
19179;SDS011;9722;48.754;8.868;2023-04-06T14:54:06;4.27;;;3.93;;
19179;SDS011;9722;48.754;8.868;2023-04-06T14:57:26;4.43;;;4.03;;
19179;SDS011;9722;48.754;8.868;2023-04-06T15:00:47;4.57;;;4.17;;
19179;SDS011;9722;48.754;8.868;2023-04-06T15:04:08;4.57;;;4.13;;
19179;SDS011;9722;48.754;8.868;2023-04-06T15:07:28;6.70;;;4.97;;
19179;SDS011;9722;48.754;8.868;2023-04-06T15:10:49;5.37;;;4.47;;
19179;SDS011;9722;48.754;8.868;2023-04-06T15:14:11;5.53;;;5.13;;
19179;SDS011;9722;48.754;8.868;2023-04-06T15:17:31;5.43;;;4.93;;
19179;SDS011;9722;48.754;8.868;2023-04-06T15:20:52;5.30;;;4.80;;
19179;SDS011;9722;48.754;8.868;2023-04-06T15:24:12;6.00;;;5.60;;
19179;SDS011;9722;48.754;8.868;2023-04-06T15:27:33;6.17;;;5.63;;
19179;SDS011;9722;48.754;8.868;2023-04-06T15:30:53;5.93;;;5.30;;
19179;SDS011;9722;48.754;8.868;2023-04-06T15:34:14;5.87;;;5.37;;
19179;SDS011;9722;48.754;8.868;2023-04-06T15:37:35;6.03;;;5.43;;
19179;SDS011;9722;48.754;8.868;2023-04-06T15:40:57;6.23;;;5.63;;
19179;SDS011;9722;48.754;8.868;2023-04-06T15:44:17;6.80;;;5.60;;
19179;SDS011;9722;48.754;8.868;2023-04-06T15:47:42;5.90;;;5.40;;
19179;SDS011;9722;48.754;8.868;2023-04-06T15:51:04;6.33;;;5.80;;
19179;SDS011;9722;48.754;8.868;2023-04-06T15:54:25;7.03;;;5.77;;
19179;SDS011;9722;48.754;8.868;2023-04-06T15:57:45;7.13;;;5.53;;
19179;SDS011;9722;48.754;8.868;2023-04-06T16:01:12;5.67;;;5.03;;
19179;SDS011;9722;48.754;8.868;2023-04-06T16:04:34;5.30;;;4.80;;
19179;SDS011;9722;48.754;8.868;2023-04-06T16:07:56;4.83;;;4.43;;
19179;SDS011;9722;48.754;8.868;2023-04-06T16:11:17;5.60;;;5.20;;
19179;SDS011;9722;48.754;8.868;2023-04-06T16:14:38;5.10;;;4.60;;
19179;SDS011;9722;48.754;8.868;2023-04-06T16:18:00;5.33;;;4.83;;
19179;SDS011;9722;48.754;8.868;2023-04-06T16:21:21;5.50;;;5.00;;
19179;SDS011;9722;48.754;8.868;2023-04-06T16:24:43;5.77;;;5.20;;
19179;SDS011;9722;48.754;8.868;2023-04-06T16:28:03;6.10;;;5.60;;
19179;SDS011;9722;48.754;8.868;2023-04-06T16:31:24;6.07;;;5.40;;
19179;SDS011;9722;48.754;8.868;2023-04-06T16:34:45;2.93;;;2.73;;
19179;SDS011;9722;48.754;8.868;2023-04-06T16:38:06;3.03;;;2.77;;
19179;SDS011;9722;48.754;8.868;2023-04-06T16:41:26;2.60;;;2.37;;
19179;SDS011;9722;48.754;8.868;2023-04-06T16:44:47;2.60;;;2.40;;
19179;SDS011;9722;48.754;8.868;2023-04-06T16:48:08;2.97;;;2.40;;
19179;SDS011;9722;48.754;8.868;2023-04-06T16:51:28;4.57;;;2.07;;
19179;SDS011;9722;48.754;8.868;2023-04-06T16:54:51;3.23;;;2.20;;
19179;SDS011;9722;48.754;8.868;2023-04-06T16:58:11;2.57;;;2.20;;
19179;SDS011;9722;48.754;8.868;2023-04-06T17:01:32;2.90;;;2.60;;
19179;SDS011;9722;48.754;8.868;2023-04-06T17:04:52;3.03;;;2.80;;
19179;SDS011;9722;48.754;8.868;2023-04-06T17:08:13;2.53;;;2.33;;
19179;SDS011;9722;48.754;8.868;2023-04-06T17:11:33;2.83;;;2.57;;
19179;SDS011;9722;48.754;8.868;2023-04-06T17:14:56;3.50;;;3.20;;
19179;SDS011;9722;48.754;8.868;2023-04-06T17:18:17;3.00;;;2.80;;
19179;SDS011;9722;48.754;8.868;2023-04-06T17:21:39;3.10;;;2.80;;
19179;SDS011;9722;48.754;8.868;2023-04-06T17:25:01;3.17;;;2.87;;
19179;SDS011;9722;48.754;8.868;2023-04-06T17:28:22;3.27;;;2.60;;
19179;SDS011;9722;48.754;8.868;2023-04-06T17:31:43;3.53;;;2.60;;
19179;SDS011;9722;48.754;8.868;2023-04-06T17:35:04;3.53;;;2.77;;
19179;SDS011;9722;48.754;8.868;2023-04-06T17:38:25;3.00;;;2.70;;
19179;SDS011;9722;48.754;8.868;2023-04-06T17:41:46;3.30;;;2.60;;
19179;SDS011;9722;48.754;8.868;2023-04-06T17:45:06;3.03;;;2.73;;
19179;SDS011;9722;48.754;8.868;2023-04-06T17:48:27;3.43;;;3.13;;
19179;SDS011;9722;48.754;8.868;2023-04-06T17:51:48;4.17;;;3.73;;
19179;SDS011;9722;48.754;8.868;2023-04-06T17:55:09;3.57;;;3.27;;
19179;SDS011;9722;48.754;8.868;2023-04-06T17:58:30;3.57;;;3.13;;
19179;SDS011;9722;48.754;8.868;2023-04-06T18:01:50;3.17;;;2.70;;
19179;SDS011;9722;48.754;8.868;2023-04-06T18:05:11;4.00;;;3.53;;
19179;SDS011;9722;48.754;8.868;2023-04-06T18:08:32;3.30;;;3.00;;
19179;SDS011;9722;48.754;8.868;2023-04-06T18:11:52;3.53;;;3.23;;
19179;SDS011;9722;48.754;8.868;2023-04-06T18:15:13;4.43;;;2.77;;
19179;SDS011;9722;48.754;8.868;2023-04-06T18:18:35;6.73;;;5.43;;
19179;SDS011;9722;48.754;8.868;2023-04-06T18:21:57;4.63;;;3.27;;
19179;SDS011;9722;48.754;8.868;2023-04-06T18:25:18;2.03;;;1.77;;
19179;SDS011;9722;48.754;8.868;2023-04-06T18:28:38;1.60;;;1.50;;
19179;SDS011;9722;48.754;8.868;2023-04-06T18:31:59;2.00;;;1.80;;
19179;SDS011;9722;48.754;8.868;2023-04-06T18:35:20;1.60;;;1.50;;
19179;SDS011;9722;48.754;8.868;2023-04-06T18:38:44;2.83;;;1.60;;
19179;SDS011;9722;48.754;8.868;2023-04-06T18:42:06;1.43;;;1.33;;
19179;SDS011;9722;48.754;8.868;2023-04-06T18:45:27;2.20;;;1.70;;
19179;SDS011;9722;48.754;8.868;2023-04-06T18:48:47;2.43;;;1.90;;
19179;SDS011;9722;48.754;8.868;2023-04-06T18:52:08;2.30;;;2.10;;
19179;SDS011;9722;48.754;8.868;2023-04-06T18:55:31;4.80;;;2.00;;
19179;SDS011;9722;48.754;8.868;2023-04-06T18:58:52;1.80;;;1.70;;
19179;SDS011;9722;48.754;8.868;2023-04-06T19:02:12;2.37;;;2.17;;
19179;SDS011;9722;48.754;8.868;2023-04-06T19:05:34;2.43;;;2.23;;
19179;SDS011;9722;48.754;8.868;2023-04-06T19:08:55;2.80;;;2.50;;
19179;SDS011;9722;48.754;8.868;2023-04-06T19:12:15;2.50;;;2.30;;
19179;SDS011;9722;48.754;8.868;2023-04-06T19:15:36;2.30;;;2.03;;
19179;SDS011;9722;48.754;8.868;2023-04-06T19:19:00;4.82;;;3.30;;
19179;SDS011;9722;48.754;8.868;2023-04-06T19:22:21;3.47;;;3.17;;
19179;SDS011;9722;48.754;8.868;2023-04-06T19:25:41;3.07;;;2.80;;
19179;SDS011;9722;48.754;8.868;2023-04-06T19:29:02;2.77;;;2.57;;
19179;SDS011;9722;48.754;8.868;2023-04-06T19:32:23;3.47;;;3.17;;
19179;SDS011;9722;48.754;8.868;2023-04-06T19:35:44;3.10;;;2.80;;
19179;SDS011;9722;48.754;8.868;2023-04-06T19:39:05;2.70;;;2.50;;
19179;SDS011;9722;48.754;8.868;2023-04-06T19:42:25;3.10;;;2.90;;
19179;SDS011;9722;48.754;8.868;2023-04-06T19:45:46;3.93;;;3.13;;
19179;SDS011;9722;48.754;8.868;2023-04-06T19:49:06;3.47;;;3.13;;
19179;SDS011;9722;48.754;8.868;2023-04-06T19:52:27;4.40;;;3.20;;
19179;SDS011;9722;48.754;8.868;2023-04-06T19:55:47;3.37;;;3.07;;
19179;SDS011;9722;48.754;8.868;2023-04-06T19:59:08;3.80;;;3.50;;
19179;SDS011;9722;48.754;8.868;2023-04-06T20:02:30;3.30;;;3.10;;
19179;SDS011;9722;48.754;8.868;2023-04-06T20:05:50;3.27;;;2.77;;
19179;SDS011;9722;48.754;8.868;2023-04-06T20:09:10;3.70;;;3.40;;
19179;SDS011;9722;48.754;8.868;2023-04-06T20:12:31;3.43;;;3.20;;
19179;SDS011;9722;48.754;8.868;2023-04-06T20:15:52;4.23;;;3.57;;
19179;SDS011;9722;48.754;8.868;2023-04-06T20:19:12;4.20;;;3.80;;
19179;SDS011;9722;48.754;8.868;2023-04-06T20:22:33;3.93;;;3.43;;
19179;SDS011;9722;48.754;8.868;2023-04-06T20:25:53;3.90;;;3.60;;
19179;SDS011;9722;48.754;8.868;2023-04-06T20:29:14;4.30;;;3.90;;
19179;SDS011;9722;48.754;8.868;2023-04-06T20:32:34;4.27;;;3.97;;